Time;durP1;ratioP1;P1;durP2;ratioP2;P2;SDS_P1;SDS_P2;PMS_P1;PMS_P2;Temp;Humidity;BMP_temperature;BMP_pressure;BME280_temperature;BME280_humidity;BME280_pressure;Samples;Min_cycle;Max_cycle;Signal;HPM_P1;HPM_P2
2024/04/09 00:01:34;;;;;;;52.20;40.47;;;16.50;99.90;;;;;;5432352;26;19999;-78
2024/04/09 00:04:00;;;;;;;56.83;43.00;;;16.50;99.90;;;;;;5434488;26;19990;-78
2024/04/09 00:06:26;;;;;;;48.45;39.92;;;16.50;99.90;;;;;;5431024;26;20007;-78
2024/04/09 00:08:55;;;;;;;51.42;39.28;;;16.50;99.90;;;;;;5433834;26;19999;-78
2024/04/09 00:11:21;;;;;;;59.65;41.10;;;16.50;99.90;;;;;;5432805;26;20002;-78
2024/04/09 00:13:48;;;;;;;61.10;41.75;;;16.50;99.90;;;;;;5433614;26;19999;-78
2024/04/09 00:16:14;;;;;;;60.25;41.97;;;16.50;99.90;;;;;;5433435;26;20347;-78
2024/04/09 00:18:39;;;;;;;56.15;41.97;;;16.40;99.90;;;;;;5435743;26;19996;-78
2024/04/09 00:21:05;;;;;;;54.33;41.03;;;16.50;99.90;;;;;;5433973;26;19991;-78
2024/04/09 00:23:31;;;;;;;50.75;41.47;;;16.40;99.90;;;;;;5433777;26;19995;-78
2024/04/09 00:25:57;;;;;;;64.05;42.05;;;16.50;99.90;;;;;;5434895;26;20056;-78
2024/04/09 00:28:22;;;;;;;57.78;40.97;;;16.50;99.90;;;;;;5433020;26;19996;-78
2024/04/09 00:30:48;;;;;;;52.90;42.03;;;16.50;99.90;;;;;;5433865;26;19991;-78
2024/04/09 00:33:17;;;;;;;58.78;42.15;;;16.50;99.90;;;;;;5428826;26;20006;-78
2024/04/09 00:35:43;;;;;;;61.20;42.00;;;16.50;99.90;;;;;;5426342;26;20012;-78
2024/04/09 00:38:14;;;;;;;55.15;42.40;;;16.40;99.90;;;;;;5434548;26;20063;-78
2024/04/09 00:40:42;;;;;;;56.95;41.17;;;16.40;99.90;;;;;;5430945;26;19992;-78
2024/04/09 00:43:08;;;;;;;54.00;42.38;;;16.40;99.90;;;;;;5435166;26;20031;-78
2024/04/09 00:45:35;;;;;;;54.22;41.75;;;16.40;99.90;;;;;;5432540;26;20523;-78
2024/04/09 00:48:01;;;;;;;57.55;43.90;;;16.40;99.90;;;;;;5425568;26;20376;-78
2024/04/09 00:50:28;;;;;;;56.00;44.45;;;16.30;99.90;;;;;;5433759;26;20067;-78
2024/04/09 00:52:56;;;;;;;60.55;44.42;;;16.30;99.90;;;;;;5431857;26;20368;-78
2024/04/09 00:55:25;;;;;;;57.90;43.60;;;16.20;99.90;;;;;;5435660;26;20002;-78
2024/04/09 00:57:52;;;;;;;56.63;43.85;;;16.20;99.90;;;;;;5430663;26;20007;-78
2024/04/09 01:00:19;;;;;;;65.90;45.97;;;16.20;99.90;;;;;;5435316;26;19991;-78
2024/04/09 01:02:48;;;;;;;55.38;43.53;;;16.20;99.90;;;;;;5431740;26;20003;-78
2024/04/09 01:05:15;;;;;;;63.00;45.17;;;16.20;99.90;;;;;;5425596;26;20466;-78
2024/04/09 01:07:42;;;;;;;59.38;44.15;;;16.10;99.90;;;;;;5435279;26;19995;-78
2024/04/09 01:10:08;;;;;;;58.28;44.35;;;16.20;99.90;;;;;;5430571;26;19992;-78
2024/04/09 01:12:34;;;;;;;60.15;43.13;;;16.10;99.90;;;;;;5431547;26;20011;-78
2024/04/09 01:15:00;;;;;;;57.97;44.78;;;16.10;99.90;;;;;;5435645;26;19995;-78
2024/04/09 01:17:28;;;;;;;56.03;42.60;;;16.10;99.90;;;;;;5434822;26;20072;-78
2024/04/09 01:19:54;;;;;;;61.67;45.30;;;16.10;99.90;;;;;;5428969;26;20031;-78
2024/04/09 01:22:20;;;;;;;59.50;43.72;;;16.10;99.90;;;;;;5434710;26;20026;-78
2024/04/09 01:24:47;;;;;;;58.88;42.50;;;16.10;99.90;;;;;;5436835;26;19999;-78
2024/04/09 01:27:14;;;;;;;51.65;41.53;;;16.00;99.90;;;;;;5423257;26;20457;-78
2024/04/09 01:29:43;;;;;;;52.53;41.40;;;16.00;99.90;;;;;;5421315;26;19996;-78
2024/04/09 01:32:10;;;;;;;58.17;42.65;;;16.00;99.90;;;;;;5423606;26;20329;-78
2024/04/09 01:34:36;;;;;;;58.22;43.80;;;16.00;99.90;;;;;;5431656;26;20015;-78
2024/04/09 01:37:02;;;;;;;63.65;43.35;;;16.10;99.90;;;;;;5429227;26;20072;-78
2024/04/09 01:39:28;;;;;;;58.05;42.03;;;16.00;99.90;;;;;;5428278;26;20441;-78
2024/04/09 01:41:55;;;;;;;57.80;42.83;;;16.00;99.90;;;;;;5435311;26;20007;-78
2024/04/09 01:44:21;;;;;;;54.60;41.97;;;16.00;99.90;;;;;;5435646;26;20067;-78
2024/04/09 01:46:48;;;;;;;58.92;41.92;;;16.00;99.90;;;;;;5433806;26;19991;-78
2024/04/09 01:49:20;;;;;;;57.80;43.22;;;15.90;99.90;;;;;;5435204;26;20010;-78
2024/04/09 01:51:46;;;;;;;55.42;42.08;;;15.90;99.90;;;;;;5428175;26;20065;-78
2024/04/09 01:54:12;;;;;;;55.97;41.63;;;15.90;99.90;;;;;;5435800;26;20002;-78
2024/04/09 01:56:38;;;;;;;58.88;42.83;;;15.80;99.90;;;;;;5430547;26;20004;-78
2024/04/09 01:59:05;;;;;;;62.17;44.17;;;15.80;99.90;;;;;;5434797;26;20453;-78
2024/04/09 02:01:31;;;;;;;50.65;40.90;;;15.80;99.90;;;;;;5428788;26;19999;-78
2024/04/09 02:03:57;;;;;;;51.10;39.53;;;15.80;99.90;;;;;;5431019;26;20465;-78
2024/04/09 02:06:24;;;;;;;52.83;41.72;;;15.80;99.90;;;;;;5433925;26;20453;-78
2024/04/09 02:08:50;;;;;;;53.65;43.15;;;15.80;99.90;;;;;;5429808;26;20059;-78
2024/04/09 02:11:17;;;;;;;53.97;41.60;;;15.70;99.90;;;;;;5431545;26;20068;-78
2024/04/09 02:13:43;;;;;;;56.28;42.05;;;15.70;99.90;;;;;;5430354;26;20010;-78
2024/04/09 02:16:09;;;;;;;55.50;43.10;;;15.80;99.90;;;;;;5426236;26;20001;-78
2024/04/09 02:18:38;;;;;;;57.55;41.58;;;15.80;99.90;;;;;;5432153;26;20440;-78
2024/04/09 02:21:09;;;;;;;55.30;41.92;;;15.80;99.90;;;;;;5431109;26;19995;-78
2024/04/09 02:23:35;;;;;;;57.45;42.00;;;15.80;99.90;;;;;;5429716;26;20040;-78
2024/04/09 02:26:01;;;;;;;52.10;40.90;;;15.80;99.90;;;;;;5433101;26;20344;-78
2024/04/09 02:28:27;;;;;;;53.58;41.65;;;15.80;99.90;;;;;;5430141;26;20345;-78
2024/04/09 02:30:53;;;;;;;49.00;38.95;;;15.80;99.90;;;;;;5430641;26;20008;-78
2024/04/09 02:33:19;;;;;;;55.15;40.58;;;15.80;99.90;;;;;;5431197;26;19994;-78
2024/04/09 02:36:00;;;;;;;58.33;42.92;;;15.70;99.90;;;;;;5431189;26;19991;-78
2024/04/09 02:38:28;;;;;;;50.22;39.92;;;15.70;99.90;;;;;;5435826;26;20059;-78
2024/04/09 02:40:54;;;;;;;52.65;39.67;;;15.70;99.90;;;;;;5429356;26;20011;-78
2024/04/09 02:43:23;;;;;;;52.10;41.28;;;15.60;99.90;;;;;;5434269;26;19995;-78
2024/04/09 02:45:52;;;;;;;54.30;42.72;;;15.60;99.90;;;;;;5432399;26;20412;-78
2024/04/09 02:48:21;;;;;;;54.70;41.70;;;15.60;99.90;;;;;;5426552;26;19988;-78
2024/04/09 02:50:55;;;;;;;61.03;40.08;;;15.60;99.90;;;;;;5437188;26;20065;-78
2024/04/09 02:53:20;;;;;;;56.13;41.55;;;15.60;99.90;;;;;;5425616;26;19995;-78
2024/04/09 02:55:46;;;;;;;60.67;42.05;;;15.60;99.90;;;;;;5438183;26;19999;-78
2024/04/09 02:58:12;;;;;;;58.63;43.33;;;15.60;99.90;;;;;;5432257;26;19999;-78
2024/04/09 03:00:38;;;;;;;55.42;40.22;;;15.60;99.90;;;;;;5439397;26;20428;-78
2024/04/09 03:03:04;;;;;;;56.65;41.63;;;15.60;99.90;;;;;;5429700;26;19998;-78
2024/04/09 03:05:33;;;;;;;56.38;43.75;;;15.60;99.90;;;;;;5438291;26;20339;-78
2024/04/09 03:07:59;;;;;;;47.58;39.00;;;15.60;99.90;;;;;;5431999;26;20019;-78
2024/04/09 03:10:26;;;;;;;49.78;41.00;;;15.70;99.90;;;;;;5438070;26;20006;-78
2024/04/09 03:12:52;;;;;;;54.90;40.35;;;15.60;99.90;;;;;;5430918;26;20002;-78
2024/04/09 03:15:18;;;;;;;51.65;39.97;;;15.60;99.90;;;;;;5435822;26;20048;-78
2024/04/09 03:17:44;;;;;;;53.83;41.28;;;15.50;99.90;;;;;;5429033;26;20018;-78
2024/04/09 03:20:10;;;;;;;53.80;41.92;;;15.60;99.90;;;;;;5433610;26;20374;-78
2024/04/09 03:22:39;;;;;;;53.75;40.10;;;15.50;99.90;;;;;;5436273;26;19991;-78
2024/04/09 03:25:06;;;;;;;54.30;40.47;;;15.50;99.90;;;;;;5433481;26;20069;-78
2024/04/09 03:27:35;;;;;;;57.88;41.53;;;15.50;99.90;;;;;;5428379;26;20427;-78
2024/04/09 03:30:03;;;;;;;57.15;45.15;;;15.50;99.90;;;;;;5429751;26;19996;-78
2024/04/09 03:32:28;;;;;;;59.75;41.72;;;15.50;99.90;;;;;;5435040;26;19999;-78
2024/04/09 03:34:54;;;;;;;54.58;40.55;;;15.50;99.90;;;;;;5433533;26;20001;-78
2024/04/09 03:37:20;;;;;;;57.22;42.65;;;15.50;99.90;;;;;;5435786;26;20071;-78
2024/04/09 03:39:46;;;;;;;54.22;41.55;;;15.50;99.90;;;;;;5434598;26;20436;-78
2024/04/09 03:42:12;;;;;;;58.63;43.15;;;15.50;99.90;;;;;;5431103;26;20000;-78
2024/04/09 03:44:38;;;;;;;60.50;43.88;;;15.50;99.90;;;;;;5434915;26;20068;-78
2024/04/09 03:47:04;;;;;;;56.03;43.95;;;15.50;99.90;;;;;;5429331;26;20010;-78
2024/04/09 03:49:30;;;;;;;57.17;44.10;;;15.50;99.90;;;;;;5426977;26;20043;-78
2024/04/09 03:51:56;;;;;;;64.22;43.53;;;15.40;99.90;;;;;;5431698;26;19996;-78
2024/04/09 03:54:23;;;;;;;58.40;44.88;;;15.50;99.90;;;;;;5434426;26;20443;-78
2024/04/09 03:56:49;;;;;;;62.95;45.17;;;15.40;99.90;;;;;;5430286;26;20006;-78
2024/04/09 03:59:15;;;;;;;60.75;43.20;;;15.40;99.90;;;;;;5434852;26;19998;-78
2024/04/09 04:01:41;;;;;;;61.40;42.33;;;15.50;99.90;;;;;;5432307;26;19999;-78
2024/04/09 04:04:06;;;;;;;54.30;41.20;;;15.50;99.90;;;;;;5430241;26;20020;-78
2024/04/09 04:06:32;;;;;;;56.15;43.10;;;15.50;99.90;;;;;;5437932;26;20044;-78
2024/04/09 04:08:58;;;;;;;56.50;42.10;;;15.50;99.90;;;;;;5422349;26;20441;-78
2024/04/09 04:11:24;;;;;;;56.42;43.83;;;15.50;99.90;;;;;;5437207;26;20010;-78
2024/04/09 04:13:49;;;;;;;57.13;47.67;;;15.60;99.90;;;;;;5437712;26;20472;-78
2024/04/09 04:16:16;;;;;;;56.28;41.55;;;15.60;99.90;;;;;;5432114;26;19999;-78
2024/04/09 04:18:43;;;;;;;59.50;41.53;;;15.50;99.90;;;;;;5429471;26;20336;-78
2024/04/09 04:21:16;;;;;;;60.38;41.67;;;15.50;99.90;;;;;;5434450;26;20021;-78
2024/04/09 04:23:43;;;;;;;57.92;43.78;;;15.50;99.90;;;;;;5430782;26;19992;-77
2024/04/09 04:26:13;;;;;;;57.97;42.35;;;15.40;99.90;;;;;;5437209;26;20064;-78
2024/04/09 04:28:41;;;;;;;61.00;47.85;;;15.40;99.90;;;;;;5393467;26;19996;-78
2024/04/09 04:31:07;;;;;;;58.40;43.67;;;15.40;99.90;;;;;;5424140;26;19991;-78
2024/04/09 04:33:33;;;;;;;56.72;42.03;;;15.40;99.90;;;;;;5445901;26;20642;-78
2024/04/09 04:35:59;;;;;;;62.60;42.20;;;15.40;99.90;;;;;;5437091;26;20005;-78
2024/04/09 04:38:25;;;;;;;60.78;42.05;;;15.40;99.90;;;;;;5429823;26;20391;-78
2024/04/09 04:40:51;;;;;;;57.42;42.00;;;15.40;99.90;;;;;;5436342;26;19999;-78
2024/04/09 04:43:17;;;;;;;59.95;39.78;;;15.40;99.90;;;;;;5431714;26;20006;-78
2024/04/09 04:45:44;;;;;;;52.35;38.97;;;15.40;99.90;;;;;;5435421;26;19991;-78
2024/04/09 04:48:11;;;;;;;57.83;42.58;;;15.30;99.90;;;;;;5430557;26;20026;-78
2024/04/09 04:50:40;;;;;;;54.70;39.55;;;15.40;99.90;;;;;;5426259;26;20449;-78
2024/04/09 04:53:06;;;;;;;52.38;41.63;;;15.40;99.90;;;;;;5432330;26;19996;-78
2024/04/09 04:55:32;;;;;;;50.75;39.42;;;15.40;99.90;;;;;;5435201;26;20003;-78
2024/04/09 04:57:59;;;;;;;50.95;40.13;;;15.40;99.90;;;;;;5430017;26;20019;-78
2024/04/09 05:00:26;;;;;;;46.35;36.70;;;15.40;99.90;;;;;;5432978;26;20006;-78
2024/04/09 05:02:51;;;;;;;51.75;36.42;;;15.40;99.90;;;;;;5427914;26;20019;-78
2024/04/09 05:05:17;;;;;;;45.30;37.17;;;15.40;99.90;;;;;;5433884;26;19995;-78
2024/04/09 05:07:43;;;;;;;52.40;42.15;;;15.30;99.90;;;;;;5430696;26;19991;-78
2024/04/09 05:10:12;;;;;;;58.47;44.55;;;15.20;99.90;;;;;;5424880;26;20006;-78
2024/04/09 05:12:44;;;;;;;55.30;42.92;;;15.20;99.90;;;;;;5419225;26;20045;-78
2024/04/09 05:15:10;;;;;;;;;;;15.20;99.90;;;;;;5418014;26;20379;-78
2024/04/09 05:17:36;;;;;;;58.63;43.72;;;15.20;99.90;;;;;;5419226;26;20448;-78
2024/04/09 05:20:04;;;;;;;55.80;42.15;;;15.20;99.90;;;;;;5422734;26;19999;-78
2024/04/09 05:22:30;;;;;;;55.20;41.90;;;15.30;99.90;;;;;;5419092;26;20081;-78
2024/04/09 05:24:56;;;;;;;48.67;37.30;;;15.30;99.90;;;;;;5419590;26;20000;-78
2024/04/09 05:27:22;;;;;;;43.28;33.95;;;15.40;99.90;;;;;;5417064;26;20014;-78
2024/04/09 05:29:48;;;;;;;47.90;32.58;;;15.40;99.90;;;;;;5411752;26;20434;-78
2024/04/09 05:32:15;;;;;;;39.00;28.25;;;15.40;99.90;;;;;;5416752;26;20000;-78
2024/04/09 05:34:41;;;;;;;38.00;27.50;;;15.50;99.90;;;;;;5424166;26;19995;-78
2024/04/09 05:37:07;;;;;;;36.75;27.52;;;15.60;99.90;;;;;;5440483;26;20005;-78
2024/04/09 05:39:33;;;;;;;36.85;27.75;;;15.60;99.90;;;;;;5445454;26;19999;-78
2024/04/09 05:41:58;;;;;;;32.20;25.73;;;15.60;99.90;;;;;;5429859;26;20005;-78
2024/04/09 05:44:24;;;;;;;34.65;25.90;;;15.60;99.90;;;;;;5445328;26;20003;-78
2024/04/09 05:46:50;;;;;;;32.10;25.50;;;15.60;99.90;;;;;;5433555;26;20522;-78
2024/04/09 05:49:20;;;;;;;33.33;25.63;;;15.60;99.90;;;;;;5423946;26;20345;-78
2024/04/09 05:51:45;;;;;;;34.90;25.85;;;15.60;99.90;;;;;;5431325;26;19992;-78
2024/04/09 05:54:12;;;;;;;33.58;24.55;;;15.60;99.90;;;;;;5394137;26;20191;-78
2024/04/09 05:56:38;;;;;;;30.13;22.20;;;15.60;99.90;;;;;;5408440;26;20002;-78
2024/04/09 05:59:04;;;;;;;35.13;24.90;;;15.70;99.90;;;;;;5437790;26;20680;-78
2024/04/09 06:01:29;;;;;;;35.30;23.90;;;15.70;99.90;;;;;;5428446;26;19991;-78
2024/04/09 06:03:55;;;;;;;30.50;22.55;;;15.80;99.90;;;;;;5425599;26;20003;-78
2024/04/09 06:06:21;;;;;;;30.98;22.80;;;15.80;99.90;;;;;;5419507;26;19992;-78
2024/04/09 06:08:46;;;;;;;35.75;25.42;;;15.80;99.90;;;;;;5446203;26;20002;-78
2024/04/09 06:11:12;;;;;;;31.20;23.48;;;15.80;99.90;;;;;;5425195;26;20070;-78
2024/04/09 06:13:38;;;;;;;27.75;21.33;;;15.90;99.90;;;;;;5434258;26;20005;-78
2024/04/09 06:16:04;;;;;;;30.15;22.27;;;16.00;99.90;;;;;;5429939;26;20005;-78
2024/04/09 06:18:30;;;;;;;30.73;22.00;;;16.10;99.90;;;;;;5432330;26;20019;-78
2024/04/09 06:20:56;;;;;;;32.65;22.67;;;16.10;99.90;;;;;;5439405;26;19998;-78
2024/04/09 06:23:22;;;;;;;30.67;20.90;;;16.20;99.90;;;;;;5430868;26;19995;-78
2024/04/09 06:25:54;;;;;;;28.85;20.55;;;16.30;99.90;;;;;;5418192;26;20411;-78
2024/04/09 06:28:23;;;;;;;32.85;22.50;;;16.30;99.90;;;;;;5433946;26;20006;-78
2024/04/09 06:30:49;;;;;;;30.77;21.98;;;16.40;99.90;;;;;;5429210;26;20003;-77
2024/04/09 06:33:15;;;;;;;34.03;23.73;;;16.40;99.90;;;;;;5433828;26;19995;-78
2024/04/09 06:35:40;;;;;;;37.72;25.10;;;16.50;99.90;;;;;;5452241;26;20064;-78
2024/04/09 06:38:06;;;;;;;33.47;25.98;;;16.50;99.90;;;;;;5443177;26;20337;-78
2024/04/09 06:40:34;;;;;;;41.28;27.35;;;16.50;99.90;;;;;;5427789;26;20013;-78
2024/04/09 06:43:00;;;;;;;37.70;28.10;;;16.60;99.90;;;;;;5437848;26;19991;-78
2024/04/09 06:45:25;;;;;;;34.78;26.77;;;16.60;99.90;;;;;;5433389;26;20006;-78
2024/04/09 06:47:51;;;;;;;38.30;28.20;;;16.70;99.90;;;;;;5438533;26;20325;-78
2024/04/09 06:50:17;;;;;;;39.22;26.73;;;16.60;99.90;;;;;;5432731;26;19999;-78
2024/04/09 06:52:42;;;;;;;94.03;47.58;;;16.70;99.90;;;;;;5439090;26;20007;-78
2024/04/09 06:55:09;;;;;;;138.27;67.05;;;16.70;99.90;;;;;;5423173;26;20003;-78
2024/04/09 06:57:36;;;;;;;81.00;43.22;;;16.70;99.90;;;;;;5438974;26;20436;-78
2024/04/09 07:00:02;;;;;;;72.25;40.85;;;16.70;99.90;;;;;;5437260;26;20003;-78
2024/04/09 07:02:27;;;;;;;66.47;37.33;;;16.80;99.90;;;;;;5430894;26;20000;-78
2024/04/09 07:04:53;;;;;;;60.85;40.30;;;16.80;99.90;;;;;;5432853;26;20353;-78
2024/04/09 07:07:19;;;;;;;59.08;41.17;;;16.80;99.90;;;;;;5435061;26;20027;-78
2024/04/09 07:09:45;;;;;;;67.88;44.63;;;16.80;99.90;;;;;;5434458;26;19998;-78
2024/04/09 07:12:11;;;;;;;66.25;45.58;;;16.70;99.90;;;;;;5434215;26;19995;-78
2024/04/09 07:14:36;;;;;;;66.28;46.90;;;16.70;99.90;;;;;;5434500;26;20000;-78
2024/04/09 07:17:02;;;;;;;63.15;46.67;;;16.70;99.90;;;;;;5431537;26;20064;-78
2024/04/09 07:19:28;;;;;;;76.15;49.28;;;16.70;99.90;;;;;;5433338;26;20023;-78
2024/04/09 07:21:54;;;;;;;76.28;48.55;;;16.80;99.90;;;;;;5432047;26;20001;-78
2024/04/09 07:24:19;;;;;;;70.15;49.00;;;16.80;99.90;;;;;;5431661;26;20452;-78
2024/04/09 07:26:45;;;;;;;73.65;49.80;;;16.90;99.90;;;;;;5430868;26;20318;-78
2024/04/09 07:29:11;;;;;;;63.63;46.72;;;16.90;99.90;;;;;;5430927;26;19996;-78
2024/04/09 07:31:37;;;;;;;69.90;48.08;;;17.00;99.90;;;;;;5435630;26;20006;-78
2024/04/09 07:34:04;;;;;;;67.18;49.28;;;17.10;99.90;;;;;;5429208;26;20000;-78
2024/04/09 07:36:30;;;;;;;64.95;44.80;;;17.10;99.90;;;;;;5438311;26;20096;-77
2024/04/09 07:38:56;;;;;;;67.30;46.50;;;17.20;99.90;;;;;;5394225;26;19996;-77
2024/04/09 07:41:25;;;;;;;58.72;43.40;;;17.30;99.90;;;;;;5436414;26;20042;-77
2024/04/09 07:43:52;;;;;;;61.08;42.88;;;17.30;99.90;;;;;;5424663;26;19995;-77
2024/04/09 07:46:19;;;;;;;63.60;46.45;;;17.40;99.90;;;;;;5421285;26;20424;-77
2024/04/09 07:48:44;;;;;;;62.63;43.58;;;17.40;99.90;;;;;;5437607;26;20444;-77
2024/04/09 07:51:11;;;;;;;55.88;42.97;;;17.40;99.90;;;;;;5431985;26;19999;-77
2024/04/09 07:53:38;;;;;;;63.75;42.30;;;17.50;99.90;;;;;;5437555;26;20002;-77
2024/04/09 07:56:08;;;;;;;70.18;44.42;;;17.70;99.90;;;;;;5430519;26;20011;-77
2024/04/09 07:58:34;;;;;;;60.65;41.83;;;17.60;99.90;;;;;;5430094;26;20010;-77
2024/04/09 08:01:01;;;;;;;62.50;43.90;;;17.60;99.90;;;;;;5435556;26;20398;-77
2024/04/09 08:03:27;;;;;;;58.30;43.55;;;17.70;99.90;;;;;;5431873;26;19998;-77
2024/04/09 08:05:53;;;;;;;60.15;42.25;;;17.70;99.90;;;;;;5436938;26;20372;-77
2024/04/09 08:08:19;;;;;;;58.88;42.60;;;17.80;99.90;;;;;;5432755;26;20065;-77
2024/04/09 08:10:45;;;;;;;62.85;43.45;;;17.80;99.90;;;;;;5438834;26;19995;-77
2024/04/09 08:13:11;;;;;;;60.25;44.63;;;17.90;99.90;;;;;;5435517;26;20468;-77
2024/04/09 08:15:37;;;;;;;60.60;43.10;;;17.90;99.90;;;;;;5433961;26;20003;-77
2024/04/09 08:18:03;;;;;;;57.78;41.42;;;18.00;99.90;;;;;;5430194;26;20007;-77
2024/04/09 08:20:29;;;;;;;54.55;39.55;;;18.00;99.90;;;;;;5437272;26;20020;-77
2024/04/09 08:23:00;;;;;;;53.08;38.50;;;18.00;99.90;;;;;;5434983;26;20060;-77
2024/04/09 08:25:25;;;;;;;57.63;40.73;;;18.00;99.90;;;;;;5435030;26;20061;-77
2024/04/09 08:27:51;;;;;;;56.08;40.97;;;18.00;99.90;;;;;;5432576;26;20275;-77
2024/04/09 08:30:17;;;;;;;55.45;39.92;;;18.00;99.90;;;;;;5434125;26;19996;-77
2024/04/09 08:32:45;;;;;;;52.38;39.22;;;18.10;99.90;;;;;;5435067;26;20010;-77
2024/04/09 08:35:11;;;;;;;52.03;39.25;;;18.10;99.90;;;;;;5433568;26;20468;-77
2024/04/09 08:37:37;;;;;;;50.60;35.60;;;18.20;99.90;;;;;;5433975;26;20001;-77
2024/04/09 08:40:04;;;;;;;52.58;38.08;;;18.20;99.90;;;;;;5432725;26;20027;-77
2024/04/09 08:42:29;;;;;;;51.42;37.15;;;18.20;99.90;;;;;;5433625;26;20027;-77
2024/04/09 08:44:57;;;;;;;54.78;38.88;;;18.20;99.90;;;;;;5432143;26;20072;-77
2024/04/09 08:47:24;;;;;;;55.58;38.65;;;18.30;99.90;;;;;;5432934;26;20006;-77
2024/04/09 08:49:51;;;;;;;52.58;39.17;;;18.40;99.90;;;;;;5436201;26;20013;-77
2024/04/09 08:52:23;;;;;;;60.83;39.65;;;18.40;99.90;;;;;;5429781;26;20007;-77
2024/04/09 08:54:49;;;;;;;;;;;18.40;99.90;;;;;;5435936;26;19990;-77
2024/04/09 08:57:14;;;;;;;54.85;39.25;;;18.40;99.90;;;;;;5430469;26;20329;-77
2024/04/09 08:59:40;;;;;;;55.60;39.60;;;18.40;99.90;;;;;;5429737;26;19996;-77
2024/04/09 09:02:14;;;;;;;57.17;40.63;;;18.50;99.90;;;;;;5436314;26;19995;-77
2024/04/09 09:04:45;;;;;;;55.95;39.53;;;18.50;99.90;;;;;;5432408;26;20015;-77
2024/04/09 09:07:15;;;;;;;51.92;37.42;;;18.50;99.90;;;;;;5430837;26;19999;-77
2024/04/09 09:09:42;;;;;;;54.88;37.10;;;18.50;99.90;;;;;;5433049;26;20398;-77
2024/04/09 09:12:09;;;;;;;52.42;37.80;;;18.60;99.90;;;;;;5434253;26;20011;-77
2024/04/09 09:14:35;;;;;;;59.40;38.90;;;18.70;99.90;;;;;;5433365;26;20353;-77
2024/04/09 09:17:04;;;;;;;56.85;39.75;;;18.80;99.90;;;;;;5432633;26;20414;-77
2024/04/09 09:19:32;;;;;;;52.13;38.22;;;18.90;99.90;;;;;;5430490;26;20163;-77
2024/04/09 09:22:04;;;;;;;50.90;38.83;;;19.00;99.90;;;;;;5433168;26;20023;-75
2024/04/09 09:24:30;;;;;;;54.42;38.63;;;19.10;99.90;;;;;;5432954;26;19995;-77
2024/04/09 09:27:04;;;;;;;54.38;38.72;;;19.20;99.90;;;;;;5432684;26;20063;-77
2024/04/09 09:29:31;;;;;;;58.83;38.05;;;19.20;99.90;;;;;;5428518;26;20003;-77
2024/04/09 09:31:57;;;;;;;51.45;38.08;;;19.30;99.90;;;;;;5429237;26;20006;-77
2024/04/09 09:34:35;;;;;;;54.15;37.80;;;19.30;99.90;;;;;;5428673;26;20007;-77
2024/04/09 09:37:03;;;;;;;57.90;41.03;;;19.40;99.90;;;;;;5425081;26;19991;-77
2024/04/09 09:39:32;;;;;;;52.85;37.50;;;19.40;99.90;;;;;;5433401;26;20393;-77
2024/04/09 09:41:58;;;;;;;51.58;37.08;;;19.50;99.90;;;;;;5429903;26;20076;-77
2024/04/09 09:44:28;;;;;;;50.33;37.08;;;19.50;99.90;;;;;;5430831;26;20003;-77
2024/04/09 09:46:58;;;;;;;59.00;37.63;;;19.50;99.90;;;;;;5433212;26;20456;-77
2024/04/09 09:49:26;;;;;;;47.08;35.35;;;19.50;99.90;;;;;;5429852;26;20429;-77
2024/04/09 09:51:53;;;;;;;51.15;36.25;;;19.70;99.90;;;;;;5431925;26;20082;-77
2024/04/09 09:54:18;;;;;;;46.60;34.97;;;19.70;99.90;;;;;;5431298;26;19994;-77
2024/04/09 09:56:49;;;;;;;53.70;35.85;;;19.70;99.90;;;;;;5437198;26;20072;-77
2024/04/09 09:59:18;;;;;;;51.58;35.70;;;19.80;99.90;;;;;;5432218;26;20001;-77
2024/04/09 10:01:48;;;;;;;50.97;35.17;;;19.80;99.90;;;;;;5433784;26;20002;-77
2024/04/09 10:04:23;;;;;;;51.75;35.50;;;20.10;99.90;;;;;;5430949;26;20002;-75
2024/04/09 10:06:57;;;;;;;52.13;35.25;;;20.10;96.10;;;;;;5430508;26;19999;-77
2024/04/09 10:09:41;;;;;;;59.95;36.53;;;20.10;98.00;;;;;;5422478;26;19996;-77
2024/04/09 10:12:18;;;;;;;49.55;34.15;;;20.10;99.90;;;;;;5430159;26;20006;-77
2024/04/09 10:14:43;;;;;;;50.10;34.63;;;20.20;99.90;;;;;;5430264;26;20023;-77
2024/04/09 10:17:12;;;;;;;42.95;33.90;;;20.30;95.40;;;;;;5430674;26;20318;-77
2024/04/09 10:19:40;;;;;;;43.63;32.63;;;20.30;90.90;;;;;;5427416;26;19992;-77
2024/04/09 10:22:06;;;;;;;46.53;33.85;;;20.30;99.90;;;;;;5435365;26;20010;-77
2024/04/09 10:24:35;;;;;;;48.75;33.50;;;20.40;99.90;;;;;;5428525;26;20023;-77
2024/04/09 10:27:04;;;;;;;43.83;30.38;;;20.40;95.10;;;;;;5427818;26;19996;-77
2024/04/09 10:29:30;;;;;;;42.42;28.50;;;20.50;83.30;;;;;;5435531;26;19991;-77
2024/04/09 10:31:56;;;;;;;45.35;30.20;;;20.50;75.10;;;;;;5429944;26;19999;-77
2024/04/09 10:34:26;;;;;;;41.75;26.25;;;20.70;91.80;;;;;;5434419;26;20019;-77
2024/04/09 10:36:54;;;;;;;37.72;25.33;;;20.80;47.40;;;;;;5427884;26;20457;-77
2024/04/09 10:39:21;;;;;;;35.63;25.20;;;20.70;61.60;;;;;;5433594;26;20022;-75
2024/04/09 10:41:57;;;;;;;41.28;26.67;;;20.70;81.40;;;;;;5427839;26;19996;-77
2024/04/09 10:44:26;;;;;;;35.25;23.80;;;20.80;78.90;;;;;;5423679;26;20394;-75
2024/04/09 10:46:52;;;;;;;33.28;19.85;;;20.90;61.90;;;;;;5432381;26;19999;-75
2024/04/09 10:49:18;;;;;;;28.85;19.35;;;21.10;64.20;;;;;;5428716;26;19994;-75
2024/04/09 10:51:46;;;;;;;25.95;16.05;;;21.30;23.00;;;;;;5427345;26;20454;-75
2024/04/09 10:54:15;;;;;;;22.38;14.57;;;21.30;25.40;;;;;;5434735;26;19999;-75
2024/04/09 10:56:41;;;;;;;13.20;8.68;;;21.40;12.20;;;;;;5427623;26;19995;-75
2024/04/09 10:59:21;;;;;;;8.02;7.20;;;21.50;1.00;;;;;;5434879;26;19998;-77
2024/04/09 11:01:47;;;;;;;10.07;7.00;;;21.50;1.00;;;;;;5430415;26;20061;-75
2024/04/09 11:04:14;;;;;;;14.38;6.85;;;21.70;1.00;;;;;;5431638;26;20429;-74
2024/04/09 11:06:43;;;;;;;13.77;6.25;;;21.70;1.00;;;;;;5433262;26;20007;-75
2024/04/09 11:09:09;;;;;;;12.18;6.28;;;21.70;1.00;;;;;;5435148;26;20387;-75
2024/04/09 11:11:35;;;;;;;8.68;5.60;;;21.70;1.00;;;;;;5435235;26;20008;-77
2024/04/09 11:14:04;;;;;;;8.00;4.80;;;21.80;1.00;;;;;;5435981;26;20006;-77
2024/04/09 11:16:30;;;;;;;4.88;4.30;;;21.70;1.00;;;;;;5431283;26;20013;-77
2024/04/09 11:19:00;;;;;;;7.35;4.40;;;21.80;1.00;;;;;;5432063;26;20503;-77
2024/04/09 11:21:32;;;;;;;10.45;5.10;;;21.90;1.00;;;;;;5431797;26;19995;-75
2024/04/09 11:23:58;;;;;;;8.98;4.35;;;22.00;1.00;;;;;;5436055;26;20002;-75
2024/04/09 11:26:25;;;;;;;10.48;5.28;;;22.10;1.00;;;;;;5429843;26;20415;-75
2024/04/09 11:28:52;;;;;;;13.52;4.90;;;22.20;99.90;;;;;;5435773;26;20000;-75
2024/04/09 11:31:22;;;;;;;9.30;3.85;;;22.30;99.90;;;;;;5432841;26;20015;-75
2024/04/09 11:33:49;;;;;;;7.97;4.00;;;22.50;99.90;;;;;;5436077;26;20068;-75
2024/04/09 11:36:15;;;;;;;6.32;3.53;;;22.50;99.90;;;;;;5425769;26;20461;-74
2024/04/09 11:38:41;;;;;;;7.93;3.75;;;22.50;99.90;;;;;;5435756;26;20006;-77
2024/04/09 11:41:10;;;;;;;9.18;3.55;;;22.60;99.90;;;;;;5432847;26;20001;-75
2024/04/09 11:43:35;;;;;;;4.00;3.20;;;22.60;99.90;;;;;;5435362;26;20445;-75
2024/04/09 11:46:02;;;;;;;5.15;3.17;;;22.70;99.90;;;;;;5434738;26;20006;-75
2024/04/09 11:48:28;;;;;;;5.15;3.35;;;22.70;99.90;;;;;;5427204;26;20032;-75
2024/04/09 11:50:54;;;;;;;7.53;3.60;;;22.60;99.90;;;;;;5431903;26;20348;-75
2024/04/09 11:53:43;;;;;;;8.10;3.58;;;22.60;99.90;;;;;;5433865;26;20011;-75
2024/04/09 11:56:08;;;;;;;10.07;4.40;;;22.50;99.90;;;;;;5425938;26;20453;-74
2024/04/09 11:58:34;;;;;;;8.07;4.68;;;22.40;99.90;;;;;;5436290;26;20005;-75
2024/04/09 12:01:01;;;;;;;10.13;4.30;;;22.30;99.90;;;;;;5424469;26;19996;-74
2024/04/09 12:03:26;;;;;;;7.57;5.65;;;22.30;99.90;;;;;;5437762;26;20350;-74
2024/04/09 12:05:52;;;;;;;10.60;5.65;;;22.30;99.90;;;;;;5430020;26;20042;-75
2024/04/09 12:08:19;;;;;;;7.22;5.32;;;22.20;99.90;;;;;;5435378;26;20027;-74
2024/04/09 12:10:45;;;;;;;8.98;4.50;;;22.20;99.90;;;;;;5432168;26;20006;-75
2024/04/09 12:13:11;;;;;;;10.10;6.07;;;22.20;99.90;;;;;;5436631;26;20009;-75
2024/04/09 12:15:38;;;;;;;10.63;6.35;;;22.10;99.90;;;;;;5433038;26;19994;-75
2024/04/09 12:18:04;;;;;;;15.93;6.65;;;22.10;99.90;;;;;;5431913;26;19999;-75
2024/04/09 12:20:30;;;;;;;8.95;5.32;;;22.00;99.90;;;;;;5430574;26;20337;-74
2024/04/09 12:22:56;;;;;;;14.02;6.40;;;22.00;1.00;;;;;;5432186;26;20472;-75
2024/04/09 12:25:21;;;;;;;8.73;6.03;;;22.00;1.00;;;;;;5434087;26;20449;-75
2024/04/09 12:27:48;;;;;;;7.57;6.63;;;21.90;1.00;;;;;;5428573;26;19995;-74
2024/04/09 12:30:15;;;;;;;11.25;6.72;;;21.90;1.00;;;;;;5435007;26;20453;-75